Time;durP1;ratioP1;P1;durP2;ratioP2;P2;SDS_P1;SDS_P2;PMS_P1;PMS_P2;Temp;Humidity;BMP_temperature;BMP_pressure;BME280_temperature;BME280_humidity;BME280_pressure;Samples;Min_cycle;Max_cycle;Signal;HPM_P1;HPM_P2
2023/03/20 00:00:07;;;;;;;44.60;20.63;;;;;;;-147.16;42.06;76709.88;3982924;30;21843;-64
2023/03/20 00:02:34;;;;;;;42.90;20.30;;;;;;;-147.16;41.96;76707.84;3975280;30;21125;-60
2023/03/20 00:05:01;;;;;;;54.23;21.07;;;;;;;-147.16;42.40;76711.91;3971129;30;20239;-60
2023/03/20 00:07:28;;;;;;;44.03;19.53;;;;;;;-147.16;42.80;76720.00;3974590;30;21360;-62
2023/03/20 00:09:56;;;;;;;46.63;20.10;;;;;;;-147.16;42.71;76720.00;3990446;30;20254;-62
2023/03/20 00:12:25;;;;;;;45.17;19.93;;;;;;;-147.16;42.38;76711.91;3978442;30;20251;-60
2023/03/20 00:14:51;;;;;;;48.30;19.63;;;;;;;-147.16;42.54;76715.94;3990389;30;20439;-61
2023/03/20 00:17:19;;;;;;;49.40;19.57;;;;;;;-147.16;42.93;76740.22;3985754;30;20248;-62
2023/03/20 00:19:46;;;;;;;45.87;20.50;;;;;;;-147.16;43.57;76740.22;3982641;30;20250;-64
2023/03/20 00:22:12;;;;;;;49.67;21.40;;;;;;;-147.16;43.08;76740.22;3980255;30;20392;-64
2023/03/20 00:24:39;;;;;;;46.33;21.30;;;;;;;-147.16;43.30;76740.22;3982251;30;20317;-59
2023/03/20 00:27:06;;;;;;;44.70;19.97;;;;;;;-147.16;43.10;76748.34;3978911;30;21958;-62
2023/03/20 00:29:33;;;;;;;45.87;20.57;;;;;;;-147.16;43.67;76748.34;3979485;30;20243;-63
2023/03/20 00:32:00;;;;;;;44.00;19.80;;;;;;;-147.16;43.11;76748.34;3981320;30;20319;-64
2023/03/20 00:34:31;;;;;;;44.77;19.60;;;;;;;-147.16;43.94;76756.44;3976518;30;20354;-65
2023/03/20 00:36:58;;;;;;;45.93;21.17;;;;;;;-147.16;43.99;76764.53;3976664;30;20258;-64
2023/03/20 00:39:26;;;;;;;48.97;22.37;;;;;;;-147.16;44.31;76780.72;3975202;30;20408;-60
2023/03/20 00:41:55;;;;;;;43.43;20.43;;;;;;;-147.16;44.93;76780.72;3979572;30;20305;-62
2023/03/20 00:44:23;;;;;;;44.30;20.73;;;;;;;-147.16;44.57;76772.63;3971542;30;20330;-63
2023/03/20 00:47:01;;;;;;;44.43;20.57;;;;;;;-147.16;44.50;76782.75;3977040;30;21065;-62
2023/03/20 00:49:31;;;;;;;53.33;22.63;;;;;;;-147.16;44.82;76780.72;3975936;30;20238;-64
2023/03/20 00:51:58;;;;;;;55.40;23.73;;;;;;;-147.16;44.97;76788.81;3984833;30;20243;-64
2023/03/20 00:54:25;;;;;;;53.40;22.33;;;;;;;-147.16;45.48;76792.88;3981036;30;20246;-63
2023/03/20 00:57:05;;;;;;;51.17;22.17;;;;;;;-147.16;45.63;76796.91;3977853;30;25304;-62
2023/03/20 00:59:34;;;;;;;48.80;22.37;;;;;;;-147.16;45.66;76796.91;3978662;30;22887;-59
2023/03/20 01:02:01;;;;;;;48.60;21.80;;;;;;;-147.16;45.88;76811.09;3980912;30;20641;-63
2023/03/20 01:04:35;;;;;;;48.87;21.37;;;;;;;-147.16;46.27;76803.00;3976532;30;20298;-61
2023/03/20 01:07:03;;;;;;;47.13;20.03;;;;;;;-147.16;45.97;76807.03;3965950;30;22209;-60
2023/03/20 01:09:30;;;;;;;58.40;21.00;;;;;;;-147.16;46.07;76803.00;3975924;30;20257;-63
2023/03/20 01:11:58;;;;;;;45.77;20.63;;;;;;;-147.16;46.15;76809.06;3970528;30;21412;-62
2023/03/20 01:14:25;;;;;;;52.67;21.93;;;;;;;-147.16;46.78;76811.09;3969117;30;20257;-61
2023/03/20 01:16:51;;;;;;;50.00;20.90;;;;;;;-147.16;46.17;76811.09;3969109;30;20262;-60
2023/03/20 01:19:18;;;;;;;45.27;20.57;;;;;;;-147.16;46.70;76813.13;3980800;30;20255;-60
2023/03/20 01:21:45;;;;;;;46.47;20.43;;;;;;;-147.16;46.71;76821.22;3972698;30;21736;-61
2023/03/20 01:24:12;;;;;;;48.73;20.40;;;;;;;-147.16;46.27;76809.06;3975384;30;20384;-59
2023/03/20 01:26:41;;;;;;;50.60;22.40;;;;;;;-147.16;46.19;76815.16;3977402;30;20784;-61
2023/03/20 01:29:19;;;;;;;50.47;22.83;;;;;;;-147.16;46.50;76821.22;3969093;30;20349;-60
2023/03/20 01:31:46;;;;;;;49.73;21.77;;;;;;;-147.16;46.76;76819.19;3980518;30;20432;-60
2023/03/20 01:34:15;;;;;;;44.07;21.33;;;;;;;-147.16;46.63;76807.03;3978344;30;20318;-62
2023/03/20 01:36:54;;;;;;;49.90;20.97;;;;;;;-147.16;46.66;76825.25;3972718;30;20303;-59
2023/03/20 01:39:26;;;;;;;50.17;22.60;;;;;;;-147.16;46.87;76829.31;3994542;30;20696;-59
2023/03/20 01:41:53;;;;;;;50.90;23.07;;;;;;;-147.16;46.92;76833.38;3981292;30;20334;-60
2023/03/20 01:44:21;;;;;;;51.47;21.03;;;;;;;-147.16;46.72;76825.25;3979787;30;22526;-61
2023/03/20 01:46:50;;;;;;;51.10;23.30;;;;;;;-147.16;46.34;76815.16;3974362;30;20325;-59
2023/03/20 01:49:19;;;;;;;47.67;22.00;;;;;;;-147.16;46.94;76813.13;3967078;30;20368;-61
2023/03/20 01:51:47;;;;;;;52.63;23.43;;;;;;;-147.16;46.94;76821.22;3978330;30;20328;-61
2023/03/20 01:54:18;;;;;;;58.17;24.10;;;;;;;-147.16;47.09;76821.22;3977743;30;20243;-61
2023/03/20 01:56:51;;;;;;;53.70;23.43;;;;;;;-147.16;47.07;76819.19;3980889;30;20704;-61
2023/03/20 01:59:24;;;;;;;48.37;22.30;;;;;;;-147.16;46.92;76809.06;3975748;30;20251;-59
2023/03/20 02:01:51;;;;;;;50.47;22.30;;;;;;;-147.16;47.18;76825.25;3965181;30;20366;-61
2023/03/20 02:04:19;;;;;;;52.20;23.57;;;;;;;-147.16;47.44;76829.31;3986410;30;21070;-60
2023/03/20 02:06:46;;;;;;;56.03;23.90;;;;;;;-147.16;47.67;76841.47;3970162;30;20515;-62
2023/03/20 02:09:12;;;;;;;54.83;22.93;;;;;;;-147.16;47.64;76841.47;3988099;30;20421;-62
2023/03/20 02:11:40;;;;;;;54.77;24.63;;;;;;;-147.16;48.08;76851.59;3974894;30;20316;-62
2023/03/20 02:14:07;;;;;;;54.00;23.03;;;;;;;-147.16;47.62;76853.63;3968669;30;20348;-62
2023/03/20 02:16:33;;;;;;;53.67;22.60;;;;;;;-147.16;47.74;76849.56;3974687;30;20284;-61
2023/03/20 02:19:00;;;;;;;49.27;22.80;;;;;;;-147.16;47.57;76845.50;3981425;30;20247;-61
2023/03/20 02:21:52;;;;;;;52.57;22.17;;;;;;;-147.16;47.74;76839.44;3968989;30;21947;-64
2023/03/20 02:24:43;;;;;;;52.03;22.03;;;;;;;-147.16;47.87;76863.72;3983882;30;20335;-60
2023/03/20 02:27:29;;;;;;;52.10;22.47;;;;;;;-147.16;48.25;76869.81;3989438;30;20248;-61
2023/03/20 02:30:24;;;;;;;49.60;21.93;;;;;;;-147.16;48.48;76869.81;3962915;30;23547;-61
2023/03/20 02:33:16;;;;;;;53.10;23.57;;;;;;;-147.16;49.11;76873.84;3983309;30;21203;-60
2023/03/20 02:36:21;;;;;;;49.20;22.83;;;;;;;-147.16;49.29;76883.97;3987356;30;20314;-59
2023/03/20 02:38:51;;;;;;;56.93;25.10;;;;;;;-147.16;49.50;76883.97;3983792;30;21213;-62
2023/03/20 02:41:45;;;;;;;47.77;21.60;;;;;;;-147.16;49.99;76894.09;3979968;30;20416;-60
2023/03/20 02:44:25;;;;;;;50.83;22.83;;;;;;;-147.16;49.96;76902.19;3970234;30;20248;-62
2023/03/20 02:47:19;;;;;;;57.83;23.03;;;;;;;-147.16;50.09;76892.09;3979096;30;21589;-65
2023/03/20 02:49:56;;;;;;;57.87;24.70;;;;;;;-147.16;50.04;76890.06;3979516;30;20711;-61
2023/03/20 02:52:32;;;;;;;63.47;24.03;;;;;;;-147.16;50.17;76890.06;3968956;30;20259;-62
2023/03/20 02:55:12;;;;;;;48.57;22.03;;;;;;;-147.16;50.17;76894.09;3965801;30;20249;-61
2023/03/20 02:57:43;;;;;;;57.83;24.13;;;;;;;-147.16;50.62;76912.31;3954008;30;20252;-61
2023/03/20 03:00:14;;;;;;;55.40;23.00;;;;;;;-147.16;50.79;76906.25;3980056;30;21399;-62
2023/03/20 03:02:49;;;;;;;47.43;22.13;;;;;;;-147.16;51.44;76914.34;3962484;30;24076;-60
2023/03/20 03:05:26;;;;;;;53.20;23.17;;;;;;;-147.16;51.33;76924.47;3966644;30;20260;-61
2023/03/20 03:07:55;;;;;;;49.90;22.97;;;;;;;-147.16;51.23;76930.53;3979911;30;20246;-59
2023/03/20 03:10:28;;;;;;;56.63;23.37;;;;;;;-147.16;51.35;76928.53;3984577;30;21054;-60
2023/03/20 03:12:56;;;;;;;51.57;23.10;;;;;;;-147.16;51.61;76934.59;3983464;30;20256;-60
2023/03/20 03:15:36;;;;;;;54.27;24.13;;;;;;;-147.16;52.50;76942.69;3974117;30;20482;-61
2023/03/20 03:18:05;;;;;;;54.67;23.37;;;;;;;-147.16;52.87;76952.81;3982353;30;21370;-59
2023/03/20 03:20:35;;;;;;;56.10;23.93;;;;;;;-147.16;52.56;76950.78;3979060;30;20252;-62
2023/03/20 03:23:03;;;;;;;53.20;22.80;;;;;;;-147.16;52.95;76958.88;3966442;30;20430;-59
2023/03/20 03:25:34;;;;;;;56.47;24.90;;;;;;;-147.16;52.81;76962.94;3975793;30;20244;-62
2023/03/20 03:28:18;;;;;;;56.27;24.50;;;;;;;-147.16;52.54;76950.78;3987585;30;21129;-63
2023/03/20 03:30:45;;;;;;;52.60;22.87;;;;;;;-147.16;51.89;76946.75;3970797;30;20306;-61
2023/03/20 03:33:21;;;;;;;60.23;25.53;;;;;;;-147.16;52.03;76950.78;3955504;30;20246;-63
2023/03/20 03:35:48;;;;;;;53.47;22.87;;;;;;;-147.16;51.66;76938.66;3979433;30;20328;-62
2023/03/20 03:38:29;;;;;;;53.70;23.93;;;;;;;-147.16;52.11;76946.75;3976671;30;20254;-62
2023/03/20 03:41:31;;;;;;;56.63;23.40;;;;;;;-147.16;51.56;76936.63;3974554;30;20268;-61
2023/03/20 03:44:22;;;;;;;48.87;21.97;;;;;;;-147.16;51.48;76932.56;3964915;30;20732;-60
2023/03/20 03:46:55;;;;;;;56.57;23.00;;;;;;;-147.16;51.49;76930.53;3972993;30;20290;-62
2023/03/20 03:49:26;;;;;;;53.63;23.37;;;;;;;-147.16;51.90;76922.44;3977161;30;20267;-62
2023/03/20 03:51:55;;;;;;;53.20;22.57;;;;;;;-147.16;51.22;76926.50;3974014;30;20714;-60
2023/03/20 03:54:26;;;;;;;53.77;23.07;;;;;;;-147.16;51.06;76924.47;3973035;30;20597;-60
2023/03/20 03:56:53;;;;;;;52.90;22.07;;;;;;;-147.16;51.61;76918.41;3967347;30;21286;-60
2023/03/20 03:59:25;;;;;;;61.63;23.07;;;;;;;-147.16;51.47;76922.44;3966318;30;20380;-58
2023/03/20 04:01:51;;;;;;;51.93;21.37;;;;;;;-147.16;50.81;76908.28;3970122;30;20357;-60
2023/03/20 04:04:19;;;;;;;52.47;22.80;;;;;;;-147.16;51.17;76908.28;3979451;30;21841;-60
2023/03/20 04:06:46;;;;;;;50.03;22.47;;;;;;;-147.16;51.08;76910.31;3965765;30;20244;-62
2023/03/20 04:09:13;;;;;;;48.57;21.77;;;;;;;-147.16;50.61;76912.31;3992460;30;20277;-60
2023/03/20 04:11:39;;;;;;;51.43;22.53;;;;;;;-147.16;50.84;76898.16;3973746;30;20669;-58
2023/03/20 04:14:06;;;;;;;48.33;21.57;;;;;;;-147.16;50.82;76912.31;3974012;30;20245;-61
2023/03/20 04:16:33;;;;;;;50.00;21.33;;;;;;;-147.16;51.12;76922.44;3980429;30;22192;-61
2023/03/20 04:18:59;;;;;;;57.03;23.50;;;;;;;-147.16;51.51;76928.53;3971712;30;20247;-61
2023/03/20 04:21:26;;;;;;;54.93;22.80;;;;;;;-147.16;51.69;76934.59;3972735;30;20779;-60
2023/03/20 04:23:52;;;;;;;52.93;22.43;;;;;;;-147.16;51.61;76934.59;3977402;30;25962;-62
2023/03/20 04:26:20;;;;;;;58.60;22.27;;;;;;;-147.16;51.90;76938.66;3974905;30;20406;-62
2023/03/20 04:28:46;;;;;;;56.43;23.43;;;;;;;-147.16;51.51;76942.69;3973797;30;20314;-61
2023/03/20 04:31:13;;;;;;;53.80;22.03;;;;;;;-147.16;51.90;76934.59;3973887;30;22545;-63
2023/03/20 04:33:40;;;;;;;54.20;22.93;;;;;;;-147.16;51.28;76934.59;3966646;30;20248;-62
2023/03/20 04:36:07;;;;;;;47.53;20.70;;;;;;;-147.16;51.47;76932.56;3975051;30;21291;-61
2023/03/20 04:38:34;;;;;;;60.90;23.17;;;;;;;-147.16;51.36;76942.69;3966453;30;20499;-61
2023/03/20 04:41:00;;;;;;;49.13;21.60;;;;;;;-147.16;51.27;76934.59;3974926;30;22024;-61
2023/03/20 04:43:28;;;;;;;52.17;21.87;;;;;;;-147.16;51.62;76942.69;3978286;30;20945;-60
2023/03/20 04:45:55;;;;;;;54.13;22.83;;;;;;;-147.16;51.60;76944.72;3977898;30;20495;-61
2023/03/20 04:48:21;;;;;;;46.43;20.83;;;;;;;-147.16;51.84;76950.78;3976206;30;20240;-61
2023/03/20 04:50:49;;;;;;;49.70;21.13;;;;;;;-147.16;52.07;76952.81;3978924;30;20241;-62
2023/03/20 04:53:17;;;;;;;52.70;23.73;;;;;;;-147.16;51.82;76950.78;3971616;30;20705;-59
2023/03/20 04:55:44;;;;;;;51.27;22.67;;;;;;;-147.16;52.32;76950.78;4024779;30;20266;-61
2023/03/20 04:58:14;;;;;;;59.67;23.23;;;;;;;-147.16;52.45;76958.88;4071934;30;20244;-59
2023/03/20 05:00:42;;;;;;;58.13;23.03;;;;;;;-147.16;52.54;76962.94;4037881;30;20243;-61
2023/03/20 05:03:10;;;;;;;53.47;21.37;;;;;;;-147.16;52.74;76958.88;4116219;30;21596;-59
2023/03/20 05:05:37;;;;;;;48.70;21.20;;;;;;;-147.16;52.10;76950.78;4142266;30;20254;-59
2023/03/20 05:08:05;;;;;;;52.17;21.27;;;;;;;-147.16;52.04;76934.59;4188904;30;20364;-60
2023/03/20 05:10:33;;;;;;;54.17;21.40;;;;;;;-147.16;51.27;76922.44;4218434;30;20246;-60
2023/03/20 05:13:00;;;;;;;53.73;21.63;;;;;;;-147.16;51.56;76926.50;4194231;30;20676;-62
2023/03/20 05:15:27;;;;;;;48.17;20.93;;;;;;;-147.16;51.27;76922.44;4150354;30;20263;-59
2023/03/20 05:17:57;;;;;;;60.30;22.47;;;;;;;-147.16;51.35;76934.59;4181398;30;21080;-60
2023/03/20 05:20:24;;;;;;;49.90;21.47;;;;;;;-147.16;51.31;76926.50;4009334;30;21250;-60
2023/03/20 05:22:51;;;;;;;50.57;20.97;;;;;;;-147.16;51.46;76928.53;3988930;30;21688;-62
2023/03/20 05:25:17;;;;;;;52.50;22.27;;;;;;;-147.16;50.68;76926.50;3976868;30;20451;-60
2023/03/20 05:27:45;;;;;;;52.07;21.07;;;;;;;-147.16;50.61;76914.34;3988691;30;20253;-61
2023/03/20 05:30:13;;;;;;;51.37;22.60;;;;;;;-147.16;51.36;76926.50;4006615;30;20643;-62
2023/03/20 05:32:40;;;;;;;54.33;20.53;;;;;;;-147.16;51.11;76910.31;3989558;30;22827;-62
2023/03/20 05:35:08;;;;;;;48.37;21.40;;;;;;;-147.16;50.84;76906.25;4013060;30;20252;-61
2023/03/20 05:37:34;;;;;;;53.33;21.73;;;;;;;-147.16;50.43;76898.16;4005641;30;20791;-59
2023/03/20 05:40:02;;;;;;;56.17;21.77;;;;;;;-147.16;50.06;76894.09;3979985;30;21709;-62
2023/03/20 05:42:30;;;;;;;48.10;21.10;;;;;;;-147.16;49.59;76881.97;4045949;30;23772;-62
2023/03/20 05:44:56;;;;;;;53.07;20.93;;;;;;;-147.16;49.51;76861.72;4034495;30;20251;-60
2023/03/20 05:47:23;;;;;;;51.07;21.07;;;;;;;-147.16;49.20;76869.81;3961696;30;20259;-63
2023/03/20 05:49:51;;;;;;;58.30;21.57;;;;;;;-147.16;49.39;76863.72;3975487;30;23693;-61
2023/03/20 05:52:18;;;;;;;57.77;23.20;;;;;;;-147.16;49.09;76853.63;3998026;30;20259;-60
2023/03/20 05:54:44;;;;;;;69.87;22.87;;;;;;;-147.16;49.38;76843.50;3979405;30;20244;-64
2023/03/20 05:57:11;;;;;;;52.70;21.73;;;;;;;-147.16;48.91;76831.34;3977162;30;20827;-61
2023/03/20 05:59:38;;;;;;;68.83;22.63;;;;;;;-147.16;48.43;76827.28;3973433;30;20240;-65
2023/03/20 06:02:04;;;;;;;67.03;20.60;;;;;;;-147.16;48.34;76809.06;3976018;30;22744;-64
2023/03/20 06:04:31;;;;;;;53.80;20.73;;;;;;;-147.16;48.29;76811.09;3969648;30;21818;-62
2023/03/20 06:06:57;;;;;;;71.73;22.93;;;;;;;-147.16;48.26;76811.09;3971402;30;20718;-61
2023/03/20 06:09:24;;;;;;;51.43;20.83;;;;;;;-147.16;47.60;76790.84;3984096;30;20262;-62
2023/03/20 06:11:51;;;;;;;62.67;23.00;;;;;;;-147.16;47.57;76788.81;3973497;30;22099;-61
2023/03/20 06:14:17;;;;;;;56.47;21.60;;;;;;;-147.16;47.49;76776.69;3970378;30;20247;-60
2023/03/20 06:16:44;;;;;;;49.17;21.00;;;;;;;-147.16;47.19;76756.44;3974812;30;22092;-62
2023/03/20 06:19:10;;;;;;;68.73;22.50;;;;;;;-147.16;47.08;76752.38;3982902;30;21914;-60
2023/03/20 06:21:37;;;;;;;61.90;23.00;;;;;;;-147.16;46.59;76732.13;3976948;30;20491;-60
2023/03/20 06:24:04;;;;;;;74.03;23.30;;;;;;;-147.16;46.14;76720.00;3992906;30;21821;-60
2023/03/20 06:26:31;;;;;;;71.70;22.83;;;;;;;-147.16;46.22;76699.75;3991818;30;20266;-61
2023/03/20 06:28:57;;;;;;;63.17;23.73;;;;;;;-147.16;46.27;76691.66;3984026;30;20369;-63
2023/03/20 06:31:24;;;;;;;50.97;22.97;;;;;;;-147.16;46.00;76673.44;3997960;30;20251;-62
2023/03/20 06:33:51;;;;;;;62.33;24.27;;;;;;;-147.16;45.77;76655.22;3982265;30;22342;-60
2023/03/20 06:36:18;;;;;;;57.17;24.17;;;;;;;-147.16;45.23;76632.94;3995865;30;20255;-60
2023/03/20 06:38:45;;;;;;;61.77;23.67;;;;;;;-147.16;45.22;76618.75;4022964;30;20685;-60
2023/03/20 06:41:11;;;;;;;55.17;24.33;;;;;;;-147.16;45.25;76604.59;3984950;30;20441;-64
2023/03/20 06:43:53;;;;;;;70.83;25.67;;;;;;;-147.16;44.88;76578.28;4005423;30;20256;-61
2023/03/20 06:46:20;;;;;;;63.23;25.33;;;;;;;-147.16;45.49;76574.22;3996832;30;20267;-61
2023/03/20 06:48:47;;;;;;;66.77;26.93;;;;;;;-147.16;46.14;76586.38;4009384;30;20250;-61
2023/03/20 06:51:14;;;;;;;55.03;25.37;;;;;;;-147.16;46.96;76612.69;3988730;30;22589;-62
2023/03/20 06:53:42;;;;;;;64.80;27.40;;;;;;;-147.16;46.11;76566.13;4008907;30;20246;-63
2023/03/20 06:56:10;;;;;;;61.17;27.73;;;;;;;-147.16;46.50;76578.28;4015798;30;20243;-63
2023/03/20 06:58:37;;;;;;;61.30;29.00;;;;;;;-147.16;45.81;76570.19;3990393;30;20244;-63
2023/03/20 07:01:12;;;;;;;66.03;29.10;;;;;;;-147.16;46.08;76562.09;3994550;30;20255;-60
2023/03/20 07:03:39;;;;;;;61.87;28.50;;;;;;;-147.16;46.19;76537.78;3991387;30;21269;-61
2023/03/20 07:06:06;;;;;;;68.53;29.60;;;;;;;-147.16;46.31;76551.97;3991833;30;20793;-61
2023/03/20 07:08:33;;;;;;;73.37;31.33;;;;;;;-147.16;46.50;76541.84;3974865;30;20328;-63
2023/03/20 07:11:01;;;;;;;73.30;32.53;;;;;;;-147.16;46.93;76562.09;3985400;30;20240;-63
2023/03/20 07:13:28;;;;;;;64.97;30.37;;;;;;;-147.16;47.21;76560.06;3997968;30;20393;-62
2023/03/20 07:15:57;;;;;;;71.33;31.10;;;;;;;-147.16;46.58;76497.28;3990667;30;24880;-61
2023/03/20 07:18:30;;;;;;;68.90;31.67;;;;;;;-147.16;45.63;76432.53;3992316;30;25302;-58
2023/03/20 07:21:01;;;;;;;68.67;30.73;;;;;;;-147.16;45.36;76440.63;3981306;30;20494;-65
2023/03/20 07:23:29;;;;;;;63.00;30.23;;;;;;;-147.16;44.17;76355.59;3984512;30;21770;-60
2023/03/20 07:25:57;;;;;;;70.97;32.47;;;;;;;-147.16;43.00;76300.94;4003201;30;20651;-60
2023/03/20 07:28:23;;;;;;;68.20;31.27;;;;;;;-147.16;42.18;76244.25;4016656;30;20247;-61
2023/03/20 07:30:50;;;;;;;66.60;31.57;;;;;;;-147.16;40.96;76197.69;3989594;30;20362;-59
2023/03/20 07:33:17;;;;;;;71.87;32.47;;;;;;;-147.16;41.75;76262.47;4005673;30;20442;-59
2023/03/20 07:35:43;;;;;;;65.53;31.70;;;;;;;-147.16;42.91;76323.19;4015295;30;20712;-59
2023/03/20 07:38:10;;;;;;;73.60;31.27;;;;;;;-147.16;43.33;76339.41;4041289;30;20248;-60
2023/03/20 07:40:37;;;;;;;75.37;31.70;;;;;;;-147.16;44.13;76355.59;4041350;30;20482;-64
2023/03/20 07:43:03;;;;;;;81.97;32.27;;;;;;;-147.16;45.11;76377.84;4010969;30;20323;-66
2023/03/20 07:45:31;;;;;;;66.60;31.87;;;;;;;-147.16;44.45;76361.66;4018316;30;20313;-61
2023/03/20 07:47:58;;;;;;;73.20;33.27;;;;;;;-147.16;45.47;76383.94;3988353;30;20254;-67
2023/03/20 07:50:24;;;;;;;70.70;32.37;;;;;;;-147.16;46.20;76402.16;3992871;30;20323;-64
2023/03/20 07:52:51;;;;;;;72.53;31.37;;;;;;;-147.16;44.84;76321.19;3998080;30;20742;-59
2023/03/20 07:55:18;;;;;;;72.50;33.00;;;;;;;-147.16;42.28;76149.13;4012841;30;20646;-62
2023/03/20 07:57:48;;;;;;;64.73;31.23;;;;;;;-147.16;36.95;75857.63;4088639;30;20244;-61
2023/03/20 08:00:16;;;;;;;68.00;30.80;;;;;;;-147.16;33.47;75635.00;4175084;30;20266;-62
2023/03/20 08:02:42;;;;;;;67.43;31.43;;;;;;;-147.16;31.80;75630.94;4095248;30;20258;-63
2023/03/20 08:05:09;;;;;;;57.90;29.00;;;;;;;-147.16;31.89;75475.09;3988111;30;20316;-60
2023/03/20 08:07:36;;;;;;;62.23;29.17;;;;;;;-147.16;29.42;75286.88;4034671;30;20253;-63
2023/03/20 08:10:04;;;;;;;69.67;31.77;;;;;;;-147.16;28.96;75282.84;3994281;30;20311;-66
2023/03/20 08:12:30;;;;;;;66.67;31.10;;;;;;;-147.16;28.36;75193.78;4006457;30;20253;-64
2023/03/20 08:14:57;;;;;;;60.60;30.83;;;;;;;-147.16;27.57;75122.94;4006847;30;20247;-67
2023/03/20 08:17:27;;;;;;;62.17;30.70;;;;;;;-147.16;26.39;74997.47;4090563;30;20747;-63
2023/03/20 08:19:54;;;;;;;62.93;28.93;;;;;;;-147.16;25.95;74934.75;4115847;30;20242;-61
2023/03/20 08:22:21;;;;;;;61.97;31.10;;;;;;;-147.16;26.14;74926.66;4018707;30;20824;-60
2023/03/20 08:24:48;;;;;;;65.43;30.93;;;;;;;-147.16;25.23;74782.97;4001888;30;21534;-63
2023/03/20 08:27:16;;;;;;;59.00;29.37;;;;;;;-147.16;24.39;74791.06;3992625;30;22460;-61
2023/03/20 08:29:43;;;;;;;52.27;28.07;;;;;;;-147.16;23.89;74687.88;4063096;30;20246;-61
2023/03/20 08:32:11;;;;;;;47.97;27.30;;;;;;;-147.16;24.56;74772.88;4085886;30;22416;-64
2023/03/20 08:34:38;;;;;;;55.13;28.30;;;;;;;-147.16;24.12;74704.06;4122782;30;20499;-64
2023/03/20 08:37:06;;;;;;;52.27;27.80;;;;;;;-147.16;23.73;74695.97;4087159;30;22074;-62
2023/03/20 08:39:34;;;;;;;54.67;29.10;;;;;;;-147.16;25.37;74930.69;4127793;30;21021;-62
2023/03/20 08:42:01;;;;;;;54.33;27.40;;;;;;;-147.16;26.96;75149.25;4051313;30;21413;-65
2023/03/20 08:44:28;;;;;;;51.73;27.60;;;;;;;-147.16;29.24;75418.44;4055688;30;20483;-63
2023/03/20 08:46:55;;;;;;;60.97;27.50;;;;;;;-147.16;30.81;75558.06;4032491;30;23519;-64
2023/03/20 08:49:22;;;;;;;57.40;28.40;;;;;;;-147.16;31.54;75626.88;3996000;30;21327;-61
2023/03/20 08:51:49;;;;;;;59.63;27.87;;;;;;;-147.16;31.33;75610.69;4062309;30;20247;-60
2023/03/20 08:54:17;;;;;;;51.93;24.77;;;;;;;-147.16;31.66;75604.63;4063160;30;20453;-64
2023/03/20 08:56:44;;;;;;;55.47;29.00;;;;;;;-147.16;32.01;75590.47;4006045;30;20247;-62
2023/03/20 08:59:11;;;;;;;55.97;29.10;;;;;;;-147.16;31.80;75622.84;4027739;30;21231;-62
2023/03/20 09:01:38;;;;;;;53.43;25.07;;;;;;;-147.16;32.79;75669.41;3995720;30;26291;-62
2023/03/20 09:04:15;;;;;;;55.20;24.97;;;;;;;-147.16;32.36;75665.34;4036333;30;20256;-61
2023/03/20 09:06:43;;;;;;;48.53;25.13;;;;;;;-147.16;31.67;75667.38;4078803;30;20362;-63
2023/03/20 09:09:10;;;;;;;41.70;22.13;;;;;;;-147.16;32.63;75760.47;4079675;30;20918;-63
2023/03/20 09:11:36;;;;;;;43.77;21.23;;;;;;;-147.16;33.22;75780.72;4058281;30;21254;-65
2023/03/20 09:14:03;;;;;;;47.77;24.23;;;;;;;-147.16;33.14;75738.22;3998818;30;23093;-60
2023/03/20 09:16:30;;;;;;;45.10;22.03;;;;;;;-147.16;32.83;75717.97;3986589;30;23439;-61
2023/03/20 09:18:57;;;;;;;48.80;22.47;;;;;;;-147.16;32.99;75742.25;4017268;30;20326;-61
2023/03/20 09:21:24;;;;;;;43.40;21.23;;;;;;;-147.16;33.46;75788.81;3999272;30;23252;-68
2023/03/20 09:23:50;;;;;;;39.20;20.23;;;;;;;-147.16;33.35;75780.72;4001998;30;20408;-69
2023/03/20 09:26:17;;;;;;;41.47;21.17;;;;;;;-147.16;33.27;75768.56;3997248;30;20300;-68
2023/03/20 09:28:44;;;;;;;39.90;20.20;;;;;;;-147.16;33.02;75752.38;3978196;30;20239;-69
2023/03/20 09:31:10;;;;;;;44.83;21.30;;;;;;;-147.16;34.08;75809.06;4005642;30;20687;-68
2023/03/20 09:33:37;;;;;;;41.80;20.37;;;;;;;-147.16;34.38;75837.38;3964978;30;20320;-62
2023/03/20 09:36:05;;;;;;;47.80;20.07;;;;;;;-147.16;33.68;75778.69;4004064;30;20395;-61
2023/03/20 09:38:31;;;;;;;41.40;19.67;;;;;;;-147.16;34.88;75849.53;3991139;30;20240;-61
2023/03/20 09:41:00;;;;;;;36.93;19.03;;;;;;;-147.16;34.72;75849.53;3991702;30;22232;-64
2023/03/20 09:43:56;;;;;;;42.23;19.43;;;;;;;-147.16;35.14;75869.78;3981479;30;20271;-63
2023/03/20 09:46:48;;;;;;;43.83;20.67;;;;;;;-147.16;35.46;75873.81;3997703;30;20933;-62
2023/03/20 09:49:47;;;;;;;42.83;18.70;;;;;;;-147.16;35.48;75890.03;4010641;30;20250;-63
2023/03/20 09:52:26;;;;;;;42.73;20.70;;;;;;;-147.16;35.85;75898.13;3999170;30;21680;-63
2023/03/20 09:54:56;;;;;;;41.47;19.63;;;;;;;-147.16;36.19;75898.13;3994561;30;20314;-61
2023/03/20 09:57:27;;;;;;;46.90;20.00;;;;;;;-147.16;36.37;75869.78;4025251;30;20241;-61
2023/03/20 10:00:03;;;;;;;45.17;20.03;;;;;;;-147.16;36.16;75859.66;3994392;30;21785;-62
2023/03/20 10:02:44;;;;;;;48.70;19.87;;;;;;;-147.16;36.72;75894.06;3986614;30;20275;-62
2023/03/20 10:05:19;;;;;;;42.00;19.97;;;;;;;-147.16;37.13;75942.66;3992354;30;20273;-61
2023/03/20 10:07:45;;;;;;;42.40;21.07;;;;;;;-147.16;37.84;75956.81;4006613;30;23267;-61
2023/03/20 11:43:54;;;;;;;53.53;24.10;;;;;;;-147.16;38.78;75841.44;4383709;30;20938;-63
2023/03/20 11:46:22;;;;;;;53.47;25.10;;;;;;;-147.16;39.49;75841.44;4046091;30;20361;-63
2023/03/20 11:49:07;;;;;;;44.40;23.13;;;;;;;-147.16;39.13;75825.25;4011321;30;21230;-62
2023/03/20 11:51:34;;;;;;;45.30;22.63;;;;;;;-147.16;38.78;75790.84;4010111;30;20690;-67
2023/03/20 11:54:04;;;;;;;43.97;22.87;;;;;;;-147.16;37.66;75758.44;4078337;30;20307;-61
2023/03/20 11:56:33;;;;;;;44.57;22.60;;;;;;;-147.16;37.24;75758.44;4691076;30;20372;-66
2023/03/20 11:59:05;;;;;;;54.47;22.97;;;;;;;-147.16;37.36;75774.66;4378545;30;20912;-61
2023/03/20 12:01:50;;;;;;;50.77;22.13;;;;;;;-147.16;36.35;75746.31;4024157;30;21597;-62
2023/03/20 12:04:36;;;;;;;41.50;19.10;;;;;;;-147.16;35.42;75720.00;4056261;30;20243;-61
2023/03/20 12:07:25;;;;;;;50.60;22.40;;;;;;;-147.16;37.13;75732.13;4042448;30;20372;-60
2023/03/20 12:10:09;;;;;;;52.40;24.50;;;;;;;-147.16;37.26;75703.81;4133767;30;23812;-61
2023/03/20 12:12:49;;;;;;;48.40;23.17;;;;;;;-147.16;37.71;75701.78;4136156;30;20239;-63
2023/03/20 12:15:22;;;;;;;51.07;24.73;;;;;;;-147.16;38.03;75701.78;4133506;30;20299;-62
2023/03/20 12:18:16;;;;;;;36.77;19.93;;;;;;;-147.16;35.46;75695.72;4126537;30;20259;-62
2023/03/20 12:20:59;;;;;;;38.03;18.30;;;;;;;-147.16;34.46;75679.50;4115829;30;20260;-62
2023/03/20 12:23:36;;;;;;;37.17;16.83;;;;;;;-147.16;34.88;75750.34;4119853;30;23301;-62
2023/03/20 12:26:07;;;;;;;40.10;17.37;;;;;;;-147.16;35.08;75748.34;4087732;30;20241;-61
2023/03/20 12:29:01;;;;;;;48.70;23.30;;;;;;;-147.16;37.37;75772.63;4000873;30;20271;-59
2023/03/20 12:31:49;;;;;;;49.70;24.10;;;;;;;-147.16;38.74;75782.75;3994386;30;20253;-65
2023/03/20 12:34:21;;;;;;;49.60;24.40;;;;;;;-147.16;38.86;75835.38;4017787;30;20341;-62
2023/03/20 12:36:51;;;;;;;49.97;25.43;;;;;;;-147.16;39.57;75861.69;3981531;30;22586;-63
2023/03/20 12:39:22;;;;;;;47.80;24.83;;;;;;;-147.16;40.37;75873.81;4005055;30;20316;-64
2023/03/20 12:42:23;;;;;;;47.27;24.13;;;;;;;-147.16;40.19;75888.00;4036410;30;20478;-60
2023/03/20 12:45:05;;;;;;;50.40;24.83;;;;;;;-147.16;41.43;75922.41;4024366;30;20251;-63
2023/03/20 12:48:05;;;;;;;53.87;25.33;;;;;;;-147.16;41.62;75922.41;4006309;30;20509;-65
2023/03/20 12:50:38;;;;;;;46.83;24.63;;;;;;;-147.16;42.26;75922.41;4004134;30;21171;-65